Time;durP1;ratioP1;P1;durP2;ratioP2;P2;SDS_P1;SDS_P2;PMS_P1;PMS_P2;Temp;Humidity;BMP_temperature;BMP_pressure;BME280_temperature;BME280_humidity;BME280_pressure;Samples;Min_cycle;Max_cycle;Signal;HPM_P1;HPM_P2
2023/01/02 00:01:32;;;;;;;62.10;26.48;;;6.90;99.90;;;;;;5052196;28;20021;-69
2023/01/02 00:03:58;;;;;;;47.17;24.30;;;6.90;99.90;;;;;;5052873;28;20103;-69
2023/01/02 00:06:24;;;;;;;69.45;28.15;;;6.90;99.90;;;;;;5052493;28;20029;-68
2023/01/02 00:08:50;;;;;;;48.92;25.00;;;6.90;99.90;;;;;;5052817;28;20025;-68
2023/01/02 00:11:16;;;;;;;42.10;24.10;;;6.90;99.90;;;;;;5052507;28;20047;-69
2023/01/02 00:13:41;;;;;;;51.78;25.65;;;6.90;99.90;;;;;;5052796;28;20067;-69
2023/01/02 00:16:07;;;;;;;51.42;26.80;;;7.00;99.90;;;;;;5052806;28;20021;-68
2023/01/02 00:18:33;;;;;;;52.78;24.67;;;6.90;99.90;;;;;;5052256;28;20389;-69
2023/01/02 00:21:03;;;;;;;46.17;24.95;;;6.90;99.90;;;;;;5052972;28;20021;-68
2023/01/02 00:23:30;;;;;;;52.50;27.52;;;6.90;99.90;;;;;;5052337;28;20033;-68
2023/01/02 00:25:55;;;;;;;38.10;23.95;;;6.90;99.90;;;;;;5052811;28;20048;-68
2023/01/02 00:28:21;;;;;;;42.40;23.60;;;6.80;99.90;;;;;;5051928;28;20470;-69
2023/01/02 00:30:47;;;;;;;53.25;23.75;;;6.80;99.90;;;;;;5052769;28;20032;-69
2023/01/02 00:33:13;;;;;;;42.60;24.73;;;6.80;99.90;;;;;;5052693;28;20025;-69
2023/01/02 00:35:39;;;;;;;47.88;24.98;;;6.80;99.90;;;;;;5052077;28;20028;-70
2023/01/02 00:38:05;;;;;;;49.58;25.73;;;6.80;99.90;;;;;;5052262;28;20028;-70
2023/01/02 00:40:31;;;;;;;46.17;24.60;;;6.80;99.90;;;;;;5052205;28;20390;-70
2023/01/02 00:42:56;;;;;;;42.88;24.98;;;6.80;99.90;;;;;;5052637;28;20029;-68
2023/01/02 00:45:22;;;;;;;44.58;25.20;;;6.70;99.90;;;;;;5051814;28;20524;-68
2023/01/02 00:47:47;;;;;;;45.90;24.67;;;6.70;99.90;;;;;;5052184;28;20484;-68
2023/01/02 00:50:13;;;;;;;45.13;24.50;;;6.70;99.90;;;;;;5052690;28;20033;-68
2023/01/02 00:52:39;;;;;;;42.25;25.02;;;6.70;99.90;;;;;;5051732;28;20025;-68
2023/01/02 00:55:05;;;;;;;39.95;24.90;;;6.70;99.90;;;;;;5051976;28;20108;-68
2023/01/02 00:57:30;;;;;;;44.00;24.40;;;6.70;99.90;;;;;;5051786;28;20056;-68
2023/01/02 00:59:56;;;;;;;40.45;25.80;;;6.70;99.90;;;;;;5052205;28;20021;-68
2023/01/02 01:02:22;;;;;;;52.00;25.48;;;6.70;99.90;;;;;;5051890;28;20047;-70
2023/01/02 01:04:47;;;;;;;55.30;26.13;;;6.70;99.90;;;;;;5052035;28;20017;-69
2023/01/02 01:07:13;;;;;;;62.53;27.10;;;6.70;99.90;;;;;;5051848;28;20033;-69
2023/01/02 01:09:39;;;;;;;53.53;25.80;;;6.70;99.90;;;;;;5052325;28;20064;-69
2023/01/02 01:12:04;;;;;;;48.55;25.83;;;6.70;99.90;;;;;;5055957;28;20033;-70
2023/01/02 01:14:30;;;;;;;51.35;25.70;;;6.70;99.90;;;;;;5055561;28;20464;-70
2023/01/02 01:16:55;;;;;;;44.05;26.58;;;6.70;99.90;;;;;;5055580;28;20040;-70
2023/01/02 01:19:21;;;;;;;49.35;25.63;;;6.70;99.90;;;;;;5055349;28;20361;-70
2023/01/02 01:21:47;;;;;;;47.47;25.80;;;6.70;99.90;;;;;;5055872;28;20052;-70
2023/01/02 01:24:14;;;;;;;46.55;23.52;;;6.60;99.90;;;;;;5055644;28;20036;-68
2023/01/02 01:26:39;;;;;;;47.10;24.60;;;6.60;99.90;;;;;;5055009;28;20059;-68
2023/01/02 01:29:05;;;;;;;48.60;24.90;;;6.60;99.90;;;;;;5056014;28;20454;-69
2023/01/02 01:31:31;;;;;;;51.13;25.38;;;6.60;99.90;;;;;;5055256;28;20032;-68
2023/01/02 01:33:56;;;;;;;40.72;24.45;;;6.60;99.90;;;;;;5055937;28;20036;-68
2023/01/02 01:36:23;;;;;;;42.63;24.50;;;6.60;99.90;;;;;;5055009;28;20025;-69
2023/01/02 01:38:49;;;;;;;40.42;23.85;;;6.60;99.90;;;;;;5055396;28;20095;-69
2023/01/02 01:41:18;;;;;;;46.83;23.63;;;6.60;99.90;;;;;;5055357;28;20159;-69
2023/01/02 01:43:49;;;;;;;41.38;23.73;;;6.60;99.90;;;;;;5054845;28;20605;-70
2023/01/02 01:46:20;;;;;;;46.53;21.73;;;6.60;99.90;;;;;;5055635;28;20033;-69
2023/01/02 01:48:49;;;;;;;38.83;23.75;;;6.50;99.90;;;;;;5054873;28;20450;-69
2023/01/02 01:51:16;;;;;;;35.30;22.88;;;6.50;99.90;;;;;;5055362;28;20041;-69
2023/01/02 01:53:43;;;;;;;40.38;23.58;;;6.50;99.90;;;;;;5055037;28;20044;-70
2023/01/02 01:56:12;;;;;;;41.97;24.05;;;6.50;99.90;;;;;;5055357;28;20032;-70
2023/01/02 01:58:43;;;;;;;43.95;23.20;;;6.40;99.90;;;;;;5053513;28;20033;-70
2023/01/02 02:01:12;;;;;;;55.75;23.80;;;6.40;99.90;;;;;;5055055;28;20031;-69
2023/01/02 02:03:40;;;;;;;41.80;22.98;;;6.40;99.90;;;;;;5054362;28;20371;-69
2023/01/02 02:06:06;;;;;;;52.60;25.75;;;6.40;99.90;;;;;;5055012;28;20357;-68
2023/01/02 02:08:44;;;;;;;43.80;24.45;;;6.40;99.90;;;;;;5054566;28;20075;-68
2023/01/02 02:11:12;;;;;;;44.35;24.60;;;6.40;99.90;;;;;;5054874;28;20504;-68
2023/01/02 02:13:38;;;;;;;44.53;23.88;;;6.40;99.90;;;;;;5054603;28;20146;-70
2023/01/02 02:16:13;;;;;;;42.22;25.67;;;6.40;99.90;;;;;;5054977;28;20064;-68
2023/01/02 02:18:49;;;;;;;39.40;22.50;;;6.40;99.90;;;;;;5054669;28;20470;-69
2023/01/02 02:21:41;;;;;;;43.10;24.38;;;6.50;99.90;;;;;;5054889;28;20025;-69
2023/01/02 02:24:09;;;;;;;;;;;6.50;99.90;;;;;;5055393;28;20025;-68
2023/01/02 02:27:24;;;;;;;38.35;23.33;;;6.40;99.90;;;;;;5054333;28;19909;-68
2023/01/02 02:30:15;;;;;;;46.10;23.63;;;6.40;99.90;;;;;;5054788;28;20029;-68
2023/01/02 02:33:07;;;;;;;49.23;24.17;;;6.40;99.90;;;;;;5054317;28;20552;-69
2023/01/02 02:35:35;;;;;;;55.25;24.08;;;6.40;99.90;;;;;;5054297;28;20483;-68
2023/01/02 02:38:29;;;;;;;51.53;24.85;;;6.40;99.90;;;;;;5054196;28;20070;-68
2023/01/02 02:41:03;;;;;;;68.57;25.17;;;6.40;99.90;;;;;;5054457;28;20041;-68
2023/01/02 02:43:35;;;;;;;44.92;23.92;;;6.40;99.90;;;;;;5054451;28;20083;-69
2023/01/02 02:46:14;;;;;;;61.20;25.77;;;6.40;99.90;;;;;;5054627;28;20021;-68
2023/01/02 02:48:45;;;;;;;56.55;23.58;;;6.40;99.90;;;;;;5052861;28;20068;-69
2023/01/02 02:51:34;;;;;;;58.35;26.08;;;6.40;99.90;;;;;;5054121;28;20104;-69
2023/01/02 02:54:17;;;;;;;55.65;25.52;;;6.40;99.90;;;;;;5054409;28;20462;-69
2023/01/02 02:56:43;;;;;;;60.58;25.88;;;6.40;99.90;;;;;;5053562;28;20025;-68
2023/01/02 02:59:11;;;;;;;51.03;26.67;;;6.40;99.90;;;;;;5053916;28;20033;-68
2023/01/02 03:01:37;;;;;;;101.18;28.33;;;6.40;99.90;;;;;;5053599;28;20029;-69
2023/01/02 03:04:08;;;;;;;75.70;26.17;;;6.30;99.90;;;;;;5052776;28;20085;-69
2023/01/02 03:06:58;;;;;;;81.18;27.35;;;6.30;99.90;;;;;;5053927;28;20043;-69
2023/01/02 03:09:36;;;;;;;61.67;26.85;;;6.30;99.90;;;;;;5054073;28;20037;-68
2023/01/02 03:12:10;;;;;;;61.78;27.85;;;6.20;99.90;;;;;;5054158;28;20454;-69
2023/01/02 03:14:52;;;;;;;68.45;26.63;;;6.20;99.90;;;;;;5053482;28;20068;-68
2023/01/02 03:17:57;;;;;;;76.40;27.42;;;6.20;99.90;;;;;;5053095;28;20040;-69
2023/01/02 03:20:27;;;;;;;107.00;28.40;;;6.20;99.90;;;;;;5051401;28;20482;-68
2023/01/02 03:22:58;;;;;;;51.37;27.37;;;6.20;99.90;;;;;;5053370;28;20048;-68
2023/01/02 03:25:23;;;;;;;60.88;29.05;;;6.20;99.90;;;;;;5053807;28;20025;-72
2023/01/02 03:27:51;;;;;;;80.63;28.00;;;6.30;99.90;;;;;;5052863;28;20037;-69
2023/01/02 03:30:20;;;;;;;71.45;28.05;;;6.20;99.90;;;;;;5053548;28;20053;-69
2023/01/02 03:32:59;;;;;;;103.03;27.88;;;6.20;99.90;;;;;;5052225;28;20053;-68
2023/01/02 03:35:39;;;;;;;59.95;27.17;;;6.20;99.90;;;;;;5053440;28;20017;-68
2023/01/02 03:38:08;;;;;;;63.10;27.23;;;6.20;99.90;;;;;;5053318;28;20377;-68
2023/01/02 03:40:41;;;;;;;72.75;29.08;;;6.10;99.90;;;;;;5052750;28;20051;-68
2023/01/02 03:43:18;;;;;;;69.55;26.60;;;6.20;99.90;;;;;;5053319;28;20389;-68
2023/01/02 03:45:59;;;;;;;86.60;26.98;;;6.20;99.90;;;;;;5051582;28;20033;-68
2023/01/02 03:48:33;;;;;;;90.97;27.70;;;6.10;99.90;;;;;;5053172;28;20120;-68
2023/01/02 03:51:00;;;;;;;69.53;28.35;;;6.00;99.90;;;;;;5053297;28;20476;-68
2023/01/02 03:53:27;;;;;;;77.78;27.98;;;6.10;99.90;;;;;;5052838;28;20025;-69
2023/01/02 03:56:16;;;;;;;81.53;26.35;;;6.00;99.90;;;;;;5051412;28;20029;-67
2023/01/02 03:58:47;;;;;;;79.70;25.73;;;6.00;99.90;;;;;;5052766;28;20029;-69
2023/01/02 04:01:27;;;;;;;;;;;6.00;99.90;;;;;;5053076;28;20031;-69
2023/01/02 04:04:22;;;;;;;66.25;26.58;;;6.00;99.90;;;;;;5052599;28;19912;-69
2023/01/02 04:06:56;;;;;;;97.05;27.90;;;5.90;99.90;;;;;;5049249;28;20045;-69
2023/01/02 04:09:26;;;;;;;80.30;29.35;;;5.90;99.90;;;;;;5053179;28;20029;-69
2023/01/02 04:12:07;;;;;;;76.85;29.23;;;5.90;99.90;;;;;;5052084;28;20462;-69
2023/01/02 04:14:45;;;;;;;101.22;27.65;;;5.90;99.90;;;;;;5052396;28;20025;-69
2023/01/02 04:17:15;;;;;;;129.50;26.92;;;5.90;99.90;;;;;;5052451;28;20044;-69
2023/01/02 04:19:45;;;;;;;86.18;28.98;;;5.80;99.90;;;;;;5052596;28;20458;-69
2023/01/02 04:22:20;;;;;;;90.50;27.67;;;5.80;99.90;;;;;;5052576;28;20037;-68
2023/01/02 04:24:53;;;;;;;77.68;27.30;;;5.80;99.90;;;;;;5052301;28;20072;-69
2023/01/02 04:27:32;;;;;;;85.97;26.60;;;5.80;99.90;;;;;;5052270;28;20122;-69
2023/01/02 04:29:58;;;;;;;84.40;26.90;;;5.80;99.90;;;;;;5050989;28;20033;-69
2023/01/02 04:32:44;;;;;;;103.72;26.45;;;5.70;99.90;;;;;;5052454;28;20535;-68
2023/01/02 04:35:19;;;;;;;124.65;26.83;;;5.70;99.90;;;;;;5052082;28;20110;-69
2023/01/02 04:37:45;;;;;;;92.47;27.25;;;5.70;99.90;;;;;;5052199;28;20373;-69
2023/01/02 04:40:37;;;;;;;83.78;27.58;;;5.70;99.90;;;;;;5052640;28;20462;-69
2023/01/02 04:43:07;;;;;;;;;;;5.60;99.90;;;;;;5052922;28;20029;-69
2023/01/02 04:45:33;;;;;;;105.70;29.13;;;5.60;99.90;;;;;;5054610;28;20371;-69
2023/01/02 04:47:58;;;;;;;111.93;28.27;;;5.70;99.90;;;;;;5056111;28;20112;-69
2023/01/02 04:50:24;;;;;;;226.68;32.40;;;5.60;99.90;;;;;;5056517;28;20373;-69
2023/01/02 04:52:49;;;;;;;99.40;29.02;;;5.60;99.90;;;;;;5056018;28;20465;-69
2023/01/02 04:55:15;;;;;;;108.10;27.60;;;5.60;99.90;;;;;;5055306;28;20454;-69
2023/01/02 04:57:41;;;;;;;96.93;28.58;;;5.60;99.90;;;;;;5055941;28;20035;-69
2023/01/02 05:00:07;;;;;;;110.20;28.08;;;5.60;99.90;;;;;;5055925;28;20056;-69
2023/01/02 05:02:35;;;;;;;110.60;28.05;;;5.60;99.90;;;;;;5055950;28;20496;-69
2023/01/02 05:05:01;;;;;;;106.85;29.40;;;5.60;99.90;;;;;;5056041;28;20060;-69
2023/01/02 05:07:26;;;;;;;100.90;28.08;;;5.60;99.90;;;;;;5055835;28;20061;-69
2023/01/02 05:09:52;;;;;;;110.57;28.90;;;5.60;99.90;;;;;;5055664;28;20112;-69
2023/01/02 05:12:17;;;;;;;105.82;28.73;;;5.50;99.90;;;;;;5055842;28;20072;-69
2023/01/02 05:14:43;;;;;;;94.47;28.80;;;5.60;99.90;;;;;;5055634;28;20435;-69
2023/01/02 05:17:09;;;;;;;73.20;25.70;;;5.50;99.90;;;;;;5055911;28;20036;-69
2023/01/02 05:19:34;;;;;;;75.13;26.08;;;5.50;99.90;;;;;;5055832;28;20079;-69
2023/01/02 05:24:44;;;;;;;76.60;25.38;;;5.50;99.90;;;;;;5055193;28;20524;-69
2023/01/02 05:27:10;;;;;;;62.45;26.60;;;5.50;99.90;;;;;;5055765;28;20116;-69
2023/01/02 05:29:35;;;;;;;87.20;25.98;;;5.40;99.90;;;;;;5055698;28;20111;-69
2023/01/02 05:32:01;;;;;;;68.22;26.73;;;5.40;99.90;;;;;;5055060;28;20423;-69
2023/01/02 05:34:26;;;;;;;83.25;27.15;;;5.40;99.90;;;;;;5055394;28;20418;-69
2023/01/02 05:36:52;;;;;;;76.22;27.40;;;5.40;99.90;;;;;;5054687;28;20529;-69
2023/01/02 05:39:18;;;;;;;62.83;26.65;;;5.40;99.90;;;;;;5054954;28;20084;-69
2023/01/02 05:41:43;;;;;;;85.25;26.33;;;5.40;99.90;;;;;;5054287;28;20118;-69
2023/01/02 05:44:10;;;;;;;100.32;27.02;;;5.40;99.90;;;;;;5054426;28;20386;-69
2023/01/02 05:46:37;;;;;;;89.22;28.92;;;5.40;99.90;;;;;;5053809;28;20474;-69
2023/01/02 05:49:04;;;;;;;74.88;28.10;;;5.40;99.90;;;;;;5053687;28;20316;-70
2023/01/02 05:51:30;;;;;;;80.13;28.35;;;5.40;99.90;;;;;;5054058;28;20029;-69
2023/01/02 05:53:56;;;;;;;71.05;27.38;;;5.40;99.90;;;;;;5053704;28;20496;-69
2023/01/02 05:56:21;;;;;;;74.88;26.65;;;5.40;99.90;;;;;;5053866;28;20036;-68
2023/01/02 05:58:48;;;;;;;65.53;27.52;;;5.40;99.90;;;;;;5053490;28;20075;-69
2023/01/02 06:01:20;;;;;;;59.78;26.67;;;5.40;99.90;;;;;;5053856;28;20036;-69
2023/01/02 06:03:47;;;;;;;65.60;27.00;;;5.40;99.90;;;;;;5053489;28;20025;-70
2023/01/02 06:06:16;;;;;;;58.30;27.30;;;5.40;99.90;;;;;;5054026;28;20347;-69
2023/01/02 06:08:42;;;;;;;78.25;27.85;;;5.40;99.90;;;;;;5053320;28;20033;-70
2023/01/02 06:11:08;;;;;;;68.03;27.10;;;5.40;99.90;;;;;;5053559;28;20438;-69
2023/01/02 06:13:35;;;;;;;78.13;27.90;;;5.40;99.90;;;;;;5053737;28;20112;-69
2023/01/02 06:16:02;;;;;;;76.10;28.85;;;5.40;99.90;;;;;;5053413;28;20305;-69
2023/01/02 06:18:30;;;;;;;87.75;27.10;;;5.40;99.90;;;;;;5053698;28;20362;-69
2023/01/02 06:21:04;;;;;;;59.95;27.15;;;5.40;99.90;;;;;;5053267;28;20506;-69
2023/01/02 06:23:30;;;;;;;80.75;27.60;;;5.30;99.90;;;;;;5053802;28;20108;-69
2023/01/02 06:26:02;;;;;;;87.20;27.55;;;5.30;99.90;;;;;;5052982;28;20438;-69
2023/01/02 06:28:28;;;;;;;79.97;27.42;;;5.30;99.90;;;;;;5053520;28;20067;-69
2023/01/02 06:31:01;;;;;;;67.10;26.10;;;5.30;99.90;;;;;;5053113;28;20064;-69
2023/01/02 06:33:28;;;;;;;58.65;28.27;;;5.30;99.90;;;;;;5053627;28;20052;-69
2023/01/02 06:36:08;;;;;;;75.22;27.25;;;5.20;99.90;;;;;;5053417;28;20039;-69
2023/01/02 06:38:34;;;;;;;68.23;27.33;;;5.30;99.90;;;;;;5013901;28;1125426;-69
2023/01/02 06:41:01;;;;;;;80.13;28.27;;;5.20;99.90;;;;;;5054090;28;20413;-69
2023/01/02 06:43:28;;;;;;;68.60;27.77;;;5.30;99.90;;;;;;5054240;28;20033;-69
2023/01/02 06:46:03;;;;;;;63.70;28.40;;;5.20;99.90;;;;;;5053654;28;20108;-69
2023/01/02 06:48:31;;;;;;;76.82;27.00;;;5.20;99.90;;;;;;5054265;28;20033;-69
2023/01/02 06:50:58;;;;;;;51.05;28.50;;;5.30;99.90;;;;;;5053866;28;20490;-69
2023/01/02 06:53:25;;;;;;;55.67;26.38;;;5.30;99.90;;;;;;5054134;28;20079;-69
2023/01/02 06:55:55;;;;;;;87.63;26.70;;;5.20;99.90;;;;;;5053826;28;20092;-69
2023/01/02 06:58:21;;;;;;;81.50;27.02;;;5.20;99.90;;;;;;5054398;28;20520;-68
2023/01/02 07:00:47;;;;;;;69.78;26.23;;;5.20;99.90;;;;;;5053630;28;20024;-69
2023/01/02 07:03:13;;;;;;;63.33;26.90;;;5.20;99.90;;;;;;5054056;28;20025;-69
2023/01/02 07:05:39;;;;;;;65.45;25.73;;;5.20;99.90;;;;;;5053975;28;20024;-69
2023/01/02 07:08:05;;;;;;;51.78;25.23;;;5.20;99.90;;;;;;5052401;28;20082;-69
2023/01/02 07:10:31;;;;;;;59.55;26.50;;;5.10;99.90;;;;;;5053794;28;20541;-69
2023/01/02 07:12:56;;;;;;;49.92;25.50;;;5.20;99.90;;;;;;5053110;28;20082;-69
2023/01/02 07:15:22;;;;;;;55.10;26.73;;;5.10;99.90;;;;;;5053837;28;20100;-68
2023/01/02 07:17:48;;;;;;;66.70;25.85;;;5.20;99.90;;;;;;5053115;28;20033;-69
2023/01/02 07:20:13;;;;;;;51.75;24.33;;;5.20;99.90;;;;;;5053650;28;20069;-68
2023/01/02 07:22:39;;;;;;;58.50;24.90;;;5.20;99.90;;;;;;5053439;28;20028;-68
2023/01/02 07:25:05;;;;;;;57.58;24.70;;;5.30;99.90;;;;;;5052945;28;20021;-68
2023/01/02 07:27:31;;;;;;;64.57;23.83;;;5.20;99.90;;;;;;5053438;28;20086;-69
2023/01/02 07:29:57;;;;;;;66.68;26.15;;;5.20;99.90;;;;;;5053075;28;20100;-68
2023/01/02 07:32:23;;;;;;;62.88;26.20;;;5.30;99.90;;;;;;5053270;28;20029;-68
2023/01/02 07:34:49;;;;;;;57.22;24.50;;;5.20;99.90;;;;;;5051943;28;20028;-70
2023/01/02 07:37:15;;;;;;;81.22;25.08;;;5.30;99.90;;;;;;5053460;28;20385;-70
2023/01/02 07:39:41;;;;;;;77.55;24.88;;;5.30;99.90;;;;;;5052812;28;20045;-70
2023/01/02 07:42:06;;;;;;;71.85;25.88;;;5.20;99.90;;;;;;5053060;28;20025;-70
2023/01/02 07:44:32;;;;;;;60.85;24.92;;;5.20;99.90;;;;;;5053443;28;20021;-69
2023/01/02 07:46:58;;;;;;;52.28;26.15;;;5.10;99.90;;;;;;5052894;28;20033;-69
2023/01/02 07:49:23;;;;;;;60.97;25.30;;;5.20;99.90;;;;;;5053554;28;20032;-69
2023/01/02 07:51:49;;;;;;;72.35;25.92;;;5.20;99.90;;;;;;5052882;28;20025;-70
2023/01/02 07:54:15;;;;;;;71.78;33.65;;;5.20;99.90;;;;;;5053183;28;20031;-70
2023/01/02 07:56:40;;;;;;;59.28;25.85;;;5.20;99.90;;;;;;5053105;28;20063;-69
2023/01/02 07:59:06;;;;;;;53.72;25.70;;;5.20;99.90;;;;;;5051516;28;20033;-69
2023/01/02 08:01:32;;;;;;;52.00;26.52;;;5.30;99.90;;;;;;5052764;28;20033;-70
2023/01/02 08:03:57;;;;;;;57.90;25.58;;;5.30;99.90;;;;;;5052644;28;20468;-70
2023/01/02 08:06:23;;;;;;;53.72;27.33;;;5.30;99.90;;;;;;5053095;28;20461;-70
2023/01/02 08:08:49;;;;;;;55.70;27.23;;;5.30;99.90;;;;;;5052711;28;20033;-74
2023/01/02 08:11:17;;;;;;;49.45;26.55;;;5.40;99.90;;;;;;5052846;28;20065;-70
2023/01/02 08:13:43;;;;;;;41.92;25.02;;;5.40;99.90;;;;;;5052949;28;20029;-70
2023/01/02 08:16:14;;;;;;;50.72;26.80;;;5.40;99.90;;;;;;5052356;28;20332;-70
2023/01/02 08:18:39;;;;;;;47.65;27.52;;;5.50;99.90;;;;;;5052496;28;20486;-69
2023/01/02 08:21:05;;;;;;;60.53;26.83;;;5.50;99.90;;;;;;5052080;28;20048;-69
2023/01/02 08:23:32;;;;;;;54.25;26.30;;;5.50;99.90;;;;;;5052800;28;20025;-70
2023/01/02 08:26:03;;;;;;;49.88;24.38;;;5.50;99.90;;;;;;5052329;28;20025;-70
2023/01/02 08:28:29;;;;;;;55.70;24.70;;;5.60;99.90;;;;;;5052497;28;20037;-70
2023/01/02 08:30:55;;;;;;;56.83;28.02;;;5.60;99.90;;;;;;5052240;28;20037;-70
2023/01/02 08:33:21;;;;;;;54.83;24.83;;;5.60;99.90;;;;;;5052688;28;20436;-70
2023/01/02 08:35:47;;;;;;;51.33;24.77;;;5.60;99.90;;;;;;5052526;28;20083;-69
2023/01/02 08:38:12;;;;;;;47.42;24.45;;;5.60;99.90;;;;;;5052408;28;20028;-69
2023/01/02 08:40:38;;;;;;;45.47;23.63;;;5.60;99.90;;;;;;5052146;28;20045;-70
2023/01/02 08:43:06;;;;;;;53.13;24.38;;;5.60;99.90;;;;;;5051902;28;20037;-69
2023/01/02 08:45:32;;;;;;;55.05;25.10;;;5.60;99.90;;;;;;5052358;28;20477;-69
2023/01/02 08:47:58;;;;;;;53.85;25.38;;;5.60;99.90;;;;;;5051986;28;20061;-69
2023/01/02 08:50:23;;;;;;;49.50;24.60;;;5.60;99.90;;;;;;5052495;28;20029;-69
2023/01/02 08:52:49;;;;;;;46.88;21.75;;;5.60;99.90;;;;;;5052517;28;20044;-69
2023/01/02 08:55:15;;;;;;;59.83;21.33;;;5.70;99.90;;;;;;5051754;28;20025;-69
2023/01/02 08:57:40;;;;;;;52.08;22.00;;;5.70;99.90;;;;;;5052435;28;20477;-69
2023/01/02 09:00:07;;;;;;;47.00;19.88;;;5.50;99.90;;;;;;5051909;28;20043;-68
2023/01/02 09:02:32;;;;;;;47.13;22.27;;;5.50;99.90;;;;;;5052293;28;20119;-69
2023/01/02 09:04:58;;;;;;;44.40;21.27;;;5.50;99.90;;;;;;5051647;28;20502;-68
2023/01/02 09:07:24;;;;;;;46.28;18.77;;;5.50;99.90;;;;;;5052131;28;20033;-69
2023/01/02 09:09:50;;;;;;;50.72;18.67;;;5.50;99.90;;;;;;5052135;28;20056;-69
2023/01/02 09:12:15;;;;;;;43.03;19.10;;;5.50;99.90;;;;;;5051966;28;20049;-69
2023/01/02 09:14:41;;;;;;;45.63;19.55;;;5.50;99.90;;;;;;5052331;28;20037;-69
2023/01/02 09:17:07;;;;;;;41.53;19.05;;;5.50;99.90;;;;;;5051627;28;20036;-69
2023/01/02 09:19:33;;;;;;;38.33;18.73;;;5.50;99.90;;;;;;5051155;28;20025;-69
2023/01/02 09:22:00;;;;;;;42.88;18.90;;;5.40;99.90;;;;;;5051633;28;20466;-69
2023/01/02 09:24:26;;;;;;;35.22;17.83;;;5.40;99.90;;;;;;5051950;28;20029;-68
2023/01/02 09:26:52;;;;;;;47.80;19.40;;;5.40;99.90;;;;;;5051691;28;20028;-69
2023/01/02 09:29:18;;;;;;;39.85;19.48;;;5.40;99.90;;;;;;5051622;28;20025;-68
2023/01/02 09:31:44;;;;;;;40.17;18.80;;;5.40;99.90;;;;;;5054220;28;20085;-68
2023/01/02 09:34:11;;;;;;;32.85;18.05;;;5.50;99.90;;;;;;5055185;28;20112;-68
2023/01/02 09:36:37;;;;;;;44.35;20.13;;;5.50;99.90;;;;;;5055710;28;20044;-69
2023/01/02 09:39:04;;;;;;;38.85;18.40;;;5.50;99.90;;;;;;5055235;28;20045;-69
2023/01/02 09:41:29;;;;;;;38.95;19.52;;;5.50;99.90;;;;;;5055045;28;20032;-69
2023/01/02 09:44:19;;;;;;;35.72;19.83;;;5.50;99.90;;;;;;5055205;28;20116;-69
2023/01/02 09:46:48;;;;;;;42.60;20.40;;;5.50;99.90;;;;;;5055477;28;20025;-68
2023/01/02 09:49:18;;;;;;;43.75;20.85;;;5.50;99.90;;;;;;5054948;28;20028;-68
2023/01/02 09:51:45;;;;;;;66.95;20.73;;;5.50;99.90;;;;;;5055092;28;20056;-69
2023/01/02 09:54:37;;;;;;;51.88;22.05;;;5.50;99.90;;;;;;5054978;28;20029;-69
2023/01/02 09:57:21;;;;;;;44.80;20.20;;;5.60;99.90;;;;;;5054281;28;20375;-69
2023/01/02 10:00:01;;;;;;;43.63;20.67;;;5.60;99.90;;;;;;5054994;28;20032;-69
2023/01/02 10:02:38;;;;;;;51.87;19.77;;;5.60;99.90;;;;;;5055177;28;20025;-69
2023/01/02 10:05:41;;;;;;;43.47;20.08;;;5.60;99.90;;;;;;5054467;28;20534;-69
2023/01/02 10:08:25;;;;;;;45.00;18.90;;;5.60;99.90;;;;;;5054812;28;20036;-69
2023/01/02 10:11:20;;;;;;;38.20;20.08;;;5.50;99.90;;;;;;5055040;28;20052;-69
2023/01/02 10:14:00;;;;;;;46.00;21.35;;;5.60;99.90;;;;;;5055063;28;20036;-69
2023/01/02 10:16:36;;;;;;;36.03;20.33;;;5.60;99.90;;;;;;5054521;28;20121;-69
2023/01/02 10:19:11;;;;;;;39.95;21.15;;;5.60;99.90;;;;;;5054823;28;20263;-70
2023/01/02 10:21:39;;;;;;;40.45;20.50;;;5.60;99.90;;;;;;5054908;28;20032;-70
2023/01/02 10:24:05;;;;;;;42.60;21.27;;;5.70;99.90;;;;;;5054153;28;20090;-70
2023/01/02 10:26:35;;;;;;;53.50;21.45;;;5.60;99.90;;;;;;5054785;28;20025;-69
2023/01/02 10:29:29;;;;;;;58.38;21.38;;;5.60;99.90;;;;;;5054191;28;20498;-70
2023/01/02 10:32:10;;;;;;;36.85;20.15;;;5.60;99.90;;;;;;5054497;28;20033;-70
2023/01/02 10:34:49;;;;;;;40.22;20.80;;;5.60;99.90;;;;;;5054763;28;20029;-69
2023/01/02 10:37:16;;;;;;;41.63;19.30;;;5.60;99.90;;;;;;5054279;28;20033;-68
2023/01/02 10:39:44;;;;;;;50.28;20.08;;;5.60;99.90;;;;;;5053985;28;20084;-69
2023/01/02 10:42:12;;;;;;;37.95;20.65;;;5.60;99.90;;;;;;5053068;28;20029;-69
2023/01/02 10:44:39;;;;;;;43.63;18.15;;;5.60;99.90;;;;;;5054170;28;20035;-68
2023/01/02 10:47:31;;;;;;;43.90;19.30;;;5.60;99.90;;;;;;5054000;28;20037;-70
2023/01/02 10:49:58;;;;;;;36.45;18.60;;;5.70;99.90;;;;;;5054159;28;20470;-69
2023/01/02 10:52:44;;;;;;;37.08;19.45;;;5.70;99.90;;;;;;5053933;28;20024;-69
2023/01/02 10:55:10;;;;;;;40.97;19.85;;;5.70;99.90;;;;;;5053970;28;20028;-70
2023/01/02 10:57:50;;;;;;;41.63;19.33;;;5.70;99.90;;;;;;5053920;28;20033;-69
2023/01/02 11:00:18;;;;;;;41.65;19.42;;;5.60;99.90;;;;;;5053460;28;20496;-69
2023/01/02 11:02:56;;;;;;;34.08;18.92;;;5.60;99.90;;;;;;5053964;28;20389;-70
2023/01/02 11:05:31;;;;;;;31.02;18.63;;;5.60;99.90;;;;;;5053473;28;20091;-69
2023/01/02 11:07:58;;;;;;;33.45;19.58;;;5.60;99.90;;;;;;5053680;28;20106;-69
2023/01/02 11:10:33;;;;;;;37.97;19.95;;;5.60;99.90;;;;;;5053300;28;20432;-69
2023/01/02 11:13:09;;;;;;;38.03;20.20;;;5.60;99.90;;;;;;5053743;28;20060;-69
2023/01/02 11:15:48;;;;;;;36.20;19.58;;;5.60;99.90;;;;;;5053667;28;20379;-69
2023/01/02 11:18:27;;;;;;;33.67;18.27;;;5.60;99.90;;;;;;5053477;28;20074;-69
2023/01/02 11:21:05;;;;;;;37.30;18.75;;;5.60;99.90;;;;;;5053909;28;20033;-69
2023/01/02 11:23:40;;;;;;;35.75;18.40;;;5.60;99.90;;;;;;5053925;28;20056;-69
2023/01/02 11:26:18;;;;;;;40.05;19.88;;;5.60;99.90;;;;;;5053191;28;20108;-69
2023/01/02 11:28:44;;;;;;;33.42;19.92;;;5.60;99.90;;;;;;5053617;28;20481;-70
2023/01/02 11:31:13;;;;;;;37.63;20.20;;;5.50;99.90;;;;;;5053182;28;20067;-69
2023/01/02 11:33:39;;;;;;;36.15;19.75;;;5.60;99.90;;;;;;5052978;28;20047;-69
2023/01/02 11:36:11;;;;;;;33.17;19.50;;;5.60;99.90;;;;;;5053301;28;20025;-69
2023/01/02 11:38:55;;;;;;;32.80;19.95;;;5.60;99.90;;;;;;5053049;28;20086;-69
2023/01/02 11:44:27;;;;;;;31.77;20.13;;;5.70;99.90;;;;;;5053125;28;20059;-68
2023/01/02 11:46:53;;;;;;;33.03;19.65;;;5.70;99.90;;;;;;5053460;28;20064;-68
2023/01/02 11:49:25;;;;;;;33.10;20.05;;;5.70;99.90;;;;;;5052735;28;20048;-69
2023/01/02 11:52:05;;;;;;;33.38;18.35;;;5.60;99.90;;;;;;5053189;28;20033;-69
2023/01/02 11:54:55;;;;;;;35.20;19.67;;;5.70;99.90;;;;;;5053241;28;20040;-69
2023/01/02 11:57:44;;;;;;;34.58;19.35;;;5.70;99.90;;;;;;5052853;28;20025;-69
2023/01/02 12:00:15;;;;;;;32.00;19.70;;;5.70;99.90;;;;;;5052662;28;20078;-70
2023/01/02 12:02:45;;;;;;;34.95;20.08;;;5.70;99.90;;;;;;5053149;28;20427;-69
2023/01/02 12:05:36;;;;;;;33.33;19.33;;;5.70;99.90;;;;;;5052506;28;20035;-70
2023/01/02 12:08:16;;;;;;;41.13;20.07;;;5.70;99.90;;;;;;5051543;28;20033;-69
2023/01/02 12:10:51;;;;;;;37.75;19.10;;;5.70;99.90;;;;;;5052620;28;20040;-69
2023/01/02 12:13:31;;;;;;;34.33;20.23;;;5.70;99.90;;;;;;5052324;28;20025;-70
2023/01/02 12:16:14;;;;;;;33.53;19.10;;;5.70;99.90;;;;;;5052935;28;20032;-70
2023/01/02 12:18:42;;;;;;;34.10;18.95;;;5.70;99.90;;;;;;5053069;28;20040;-69
2023/01/02 12:21:28;;;;;;;37.63;19.88;;;5.70;99.90;;;;;;5052450;28;20377;-69
2023/01/02 12:24:38;;;;;;;31.98;20.08;;;5.70;99.90;;;;;;5052887;28;20390;-68
2023/01/02 12:27:13;;;;;;;34.72;19.00;;;5.70;99.90;;;;;;5042071;28;20041;-69
2023/01/02 12:30:07;;;;;;;32.30;18.70;;;5.70;99.90;;;;;;5052821;28;20083;-69
2023/01/02 12:32:45;;;;;;;34.92;18.50;;;5.70;99.90;;;;;;5052525;28;20485;-69
2023/01/02 12:35:16;;;;;;;29.67;18.08;;;5.70;99.90;;;;;;5052263;28;20044;-70
2023/01/02 12:37:44;;;;;;;;;;;5.70;99.90;;;;;;5052681;28;20033;-68
2023/01/02 12:40:44;;;;;;;30.08;17.38;;;5.70;99.90;;;;;;5052278;28;19962;-70
2023/01/02 12:43:40;;;;;;;33.08;19.48;;;5.70;99.90;;;;;;5052275;28;20032;-70
2023/01/02 12:46:15;;;;;;;31.40;18.83;;;5.80;99.90;;;;;;5052478;28;20032;-69
2023/01/02 12:48:57;;;;;;;29.65;18.77;;;5.70;99.90;;;;;;5052265;28;20068;-70
2023/01/02 12:51:37;;;;;;;26.90;17.33;;;5.80;99.90;;;;;;5052217;28;20485;-69
2023/01/02 12:54:27;;;;;;;25.27;16.65;;;5.70;99.90;;;;;;5052624;28;20028;-68
2023/01/02 12:57:11;;;;;;;28.13;17.90;;;5.70;99.90;;;;;;5052825;28;20026;-68
2023/01/02 12:59:56;;;;;;;29.42;16.92;;;5.70;99.90;;;;;;5053085;28;20044;-69
2023/01/02 13:02:40;;;;;;;41.58;17.63;;;5.70;99.90;;;;;;5052883;28;20083;-69
2023/01/02 13:05:12;;;;;;;40.30;17.65;;;5.60;99.90;;;;;;5052885;28;20025;-69